Terminal Aerodrome Forecast
Issued by NWS Amarillo, TX

Home | Current Version | Previous Version | Text Only | Print | Product List | Glossary On
Versions: 1 2 3 4 5 6 7 8 9 10 11 12 13 14 15 16 17 18
000
FTUS44 KAMA 191100
TAFGUY
TAF
KGUY 191120Z 1912/2012 VRB04KT 6SM BR OVC011
     FM191600 23005KT P6SM OVC010
     FM200000 18005KT P6SM SCT010=

USA.gov is the U.S. government's official web portal to all federal, state and local government web resources and services.